sensor_id;sensor_type;location;lat;lon;timestamp;pressure;altitude;pressure_sealevel;temperature;humidity
57606;BME280;43430;48.204;11.556;2022-10-26T00:02:22;96218.59;;;10.16;100.00
57606;BME280;43430;48.204;11.556;2022-10-26T00:04:47;96209.28;;;10.13;100.00
57606;BME280;43430;48.204;11.556;2022-10-26T00:07:12;96216.59;;;10.11;100.00
57606;BME280;43430;48.204;11.556;2022-10-26T00:09:38;96216.75;;;10.16;100.00
57606;BME280;43430;48.204;11.556;2022-10-26T00:12:03;96213.28;;;10.22;100.00
57606;BME280;43430;48.204;11.556;2022-10-26T00:14:29;96214.09;;;10.23;100.00
57606;BME280;43430;48.204;11.556;2022-10-26T00:16:54;96210.03;;;10.27;100.00
57606;BME280;43430;48.204;11.556;2022-10-26T00:19:20;96204.91;;;10.32;100.00
57606;BME280;43430;48.204;11.556;2022-10-26T00:21:45;96211.59;;;10.35;100.00
57606;BME280;43430;48.204;11.556;2022-10-26T00:24:11;96207.97;;;10.36;100.00
57606;BME280;43430;48.204;11.556;2022-10-26T00:26:37;96197.34;;;10.42;100.00
57606;BME280;43430;48.204;11.556;2022-10-26T00:29:03;96193.31;;;10.40;100.00
57606;BME280;43430;48.204;11.556;2022-10-26T00:31:28;96186.41;;;10.39;100.00
57606;BME280;43430;48.204;11.556;2022-10-26T00:33:55;96188.25;;;10.38;100.00
57606;BME280;43430;48.204;11.556;2022-10-26T00:36:22;96194.13;;;10.40;100.00
57606;BME280;43430;48.204;11.556;2022-10-26T00:38:53;96184.81;;;10.38;100.00
57606;BME280;43430;48.204;11.556;2022-10-26T00:41:24;96192.06;;;10.42;100.00
57606;BME280;43430;48.204;11.556;2022-10-26T00:43:51;96176.69;;;10.39;100.00
57606;BME280;43430;48.204;11.556;2022-10-26T00:46:30;96169.59;;;10.40;100.00
57606;BME280;43430;48.204;11.556;2022-10-26T00:49:02;96163.06;;;10.42;100.00
57606;BME280;43430;48.204;11.556;2022-10-26T00:51:44;96164.09;;;10.41;100.00
57606;BME280;43430;48.204;11.556;2022-10-26T00:54:12;96157.41;;;10.39;100.00
57606;BME280;43430;48.204;11.556;2022-10-26T00:56:39;96164.09;;;10.41;100.00
57606;BME280;43430;48.204;11.556;2022-10-26T00:59:08;96158.81;;;10.41;100.00
57606;BME280;43430;48.204;11.556;2022-10-26T01:01:37;96162.50;;;10.40;100.00
57606;BME280;43430;48.204;11.556;2022-10-26T01:04:05;96175.13;;;10.32;100.00
57606;BME280;43430;48.204;11.556;2022-10-26T01:06:31;96177.19;;;10.30;100.00
57606;BME280;43430;48.204;11.556;2022-10-26T01:08:58;96180.38;;;10.32;100.00
57606;BME280;43430;48.204;11.556;2022-10-26T01:11:23;96188.16;;;10.27;100.00
57606;BME280;43430;48.204;11.556;2022-10-26T01:13:51;96201.09;;;10.21;100.00
57606;BME280;43430;48.204;11.556;2022-10-26T01:16:36;96203.53;;;10.23;100.00
57606;BME280;43430;48.204;11.556;2022-10-26T01:21:52;96193.78;;;10.30;100.00
57606;BME280;43430;48.204;11.556;2022-10-26T01:24:44;96195.56;;;10.36;100.00
57606;BME280;43430;48.204;11.556;2022-10-26T01:27:19;96189.69;;;10.34;100.00
57606;BME280;43430;48.204;11.556;2022-10-26T01:36:21;96200.25;;;10.34;100.00
57606;BME280;43430;48.204;11.556;2022-10-26T01:38:29;96206.13;;;10.36;100.00
57606;BME280;43430;48.204;11.556;2022-10-26T01:41:12;96207.97;;;10.36;100.00
57606;BME280;43430;48.204;11.556;2022-10-26T01:43:44;96208.75;;;10.36;100.00
57606;BME280;43430;48.204;11.556;2022-10-26T01:46:13;96206.94;;;10.37;100.00
57606;BME280;43430;48.204;11.556;2022-10-26T01:48:40;96210.97;;;10.39;100.00
57606;BME280;43430;48.204;11.556;2022-10-26T01:51:08;96200.84;;;10.36;100.00
57606;BME280;43430;48.204;11.556;2022-10-26T01:53:35;96192.56;;;10.33;100.00
57606;BME280;43430;48.204;11.556;2022-10-26T01:56:13;96190.13;;;10.31;100.00
57606;BME280;43430;48.204;11.556;2022-10-26T01:59:12;96184.28;;;10.22;100.00
57606;BME280;43430;48.204;11.556;2022-10-26T02:05:22;96220.63;;;10.14;100.00
57606;BME280;43430;48.204;11.556;2022-10-26T02:07:34;96220.97;;;10.24;100.00
57606;BME280;43430;48.204;11.556;2022-10-26T02:10:21;96209.00;;;10.28;100.00
57606;BME280;43430;48.204;11.556;2022-10-26T02:13:12;96194.31;;;10.39;100.00
57606;BME280;43430;48.204;11.556;2022-10-26T02:15:52;96204.75;;;10.27;100.00
57606;BME280;43430;48.204;11.556;2022-10-26T02:18:24;96213.53;;;10.14;100.00
57606;BME280;43430;48.204;11.556;2022-10-26T02:20:55;96214.72;;;10.18;100.00
57606;BME280;43430;48.204;11.556;2022-10-26T02:23:23;96212.66;;;10.27;100.00
57606;BME280;43430;48.204;11.556;2022-10-26T02:25:54;96219.97;;;10.18;100.00
57606;BME280;43430;48.204;11.556;2022-10-26T02:28:26;96230.69;;;10.23;100.00
57606;BME280;43430;48.204;11.556;2022-10-26T02:30:55;96216.47;;;10.31;100.00
57606;BME280;43430;48.204;11.556;2022-10-26T02:33:23;96203.91;;;10.33;100.00
57606;BME280;43430;48.204;11.556;2022-10-26T02:35:51;96199.88;;;10.31;100.00
57606;BME280;43430;48.204;11.556;2022-10-26T02:38:19;96200.69;;;10.25;100.00
57606;BME280;43430;48.204;11.556;2022-10-26T02:40:47;96216.72;;;10.23;100.00
57606;BME280;43430;48.204;11.556;2022-10-26T02:43:16;96219.34;;;10.30;100.00
57606;BME280;43430;48.204;11.556;2022-10-26T02:45:50;96231.00;;;10.09;100.00
57606;BME280;43430;48.204;11.556;2022-10-26T02:48:17;96233.00;;;10.13;100.00
57606;BME280;43430;48.204;11.556;2022-10-26T02:51:35;96224.25;;;10.19;100.00
57606;BME280;43430;48.204;11.556;2022-10-26T02:54:09;96222.56;;;10.25;100.00
57606;BME280;43430;48.204;11.556;2022-10-26T02:56:47;96217.09;;;10.33;100.00
57606;BME280;43430;48.204;11.556;2022-10-26T02:59:18;96204.34;;;10.23;100.00
57606;BME280;43430;48.204;11.556;2022-10-26T03:01:44;96205.56;;;10.21;100.00
57606;BME280;43430;48.204;11.556;2022-10-26T03:04:09;96198.28;;;10.23;100.00
57606;BME280;43430;48.204;11.556;2022-10-26T03:06:34;96206.22;;;10.16;100.00
57606;BME280;43430;48.204;11.556;2022-10-26T03:09:00;96216.91;;;10.21;100.00
57606;BME280;43430;48.204;11.556;2022-10-26T03:11:25;96193.38;;;10.33;100.00
57606;BME280;43430;48.204;11.556;2022-10-26T03:13:51;96165.13;;;10.40;100.00
57606;BME280;43430;48.204;11.556;2022-10-26T03:16:16;96154.78;;;10.39;100.00
57606;BME280;43430;48.204;11.556;2022-10-26T03:18:41;96167.16;;;10.38;100.00
57606;BME280;43430;48.204;11.556;2022-10-26T03:21:07;96160.88;;;10.39;100.00
57606;BME280;43430;48.204;11.556;2022-10-26T03:23:32;96166.31;;;10.44;100.00
57606;BME280;43430;48.204;11.556;2022-10-26T03:25:58;96177.66;;;10.45;100.00
57606;BME280;43430;48.204;11.556;2022-10-26T03:28:24;96188.50;;;10.55;100.00
57606;BME280;43430;48.204;11.556;2022-10-26T03:30:49;96171.66;;;10.56;100.00
57606;BME280;43430;48.204;11.556;2022-10-26T03:33:14;96159.50;;;10.55;100.00
57606;BME280;43430;48.204;11.556;2022-10-26T03:35:40;96160.75;;;10.53;100.00
57606;BME280;43430;48.204;11.556;2022-10-26T03:38:05;96171.66;;;10.56;100.00
57606;BME280;43430;48.204;11.556;2022-10-26T03:40:30;96164.59;;;10.57;100.00
57606;BME280;43430;48.204;11.556;2022-10-26T03:42:56;96165.59;;;10.56;100.00
57606;BME280;43430;48.204;11.556;2022-10-26T03:45:21;96172.50;;;10.57;100.00
57606;BME280;43430;48.204;11.556;2022-10-26T03:47:48;96171.47;;;10.58;100.00
57606;BME280;43430;48.204;11.556;2022-10-26T03:50:16;96175.50;;;10.60;100.00
57606;BME280;43430;48.204;11.556;2022-10-26T03:52:41;96183.19;;;10.62;100.00
57606;BME280;43430;48.204;11.556;2022-10-26T03:55:07;96178.09;;;10.67;100.00
57606;BME280;43430;48.204;11.556;2022-10-26T03:57:33;96172.81;;;10.67;100.00
57606;BME280;43430;48.204;11.556;2022-10-26T03:59:58;96181.72;;;10.66;100.00
57606;BME280;43430;48.204;11.556;2022-10-26T04:02:24;96177.25;;;10.66;100.00
57606;BME280;43430;48.204;11.556;2022-10-26T04:04:49;96170.59;;;10.64;100.00
57606;BME280;43430;48.204;11.556;2022-10-26T04:07:15;96170.75;;;10.69;100.00
57606;BME280;43430;48.204;11.556;2022-10-26T04:09:40;96179.38;;;10.58;100.00
57606;BME280;43430;48.204;11.556;2022-10-26T04:12:05;96181.22;;;10.57;100.00
57606;BME280;43430;48.204;11.556;2022-10-26T04:14:31;96183.25;;;10.55;100.00
57606;BME280;43430;48.204;11.556;2022-10-26T04:16:56;96195.31;;;10.44;100.00
57606;BME280;43430;48.204;11.556;2022-10-26T04:19:21;96207.81;;;10.49;100.00
57606;BME280;43430;48.204;11.556;2022-10-26T04:21:47;96207.34;;;10.59;100.00
57606;BME280;43430;48.204;11.556;2022-10-26T04:24:12;96211.81;;;10.58;100.00
57606;BME280;43430;48.204;11.556;2022-10-26T04:26:37;96215.31;;;10.52;100.00
57606;BME280;43430;48.204;11.556;2022-10-26T04:29:03;96214.25;;;10.60;100.00
57606;BME280;43430;48.204;11.556;2022-10-26T04:31:32;96225.97;;;10.64;100.00
57606;BME280;43430;48.204;11.556;2022-10-26T04:33:57;96217.34;;;10.75;100.00
57606;BME280;43430;48.204;11.556;2022-10-26T04:36:22;96213.69;;;10.76;100.00
57606;BME280;43430;48.204;11.556;2022-10-26T04:38:48;96218.22;;;10.69;100.00
57606;BME280;43430;48.204;11.556;2022-10-26T04:41:14;96222.09;;;10.66;100.00
57606;BME280;43430;48.204;11.556;2022-10-26T04:43:39;96214.63;;;10.63;100.00
57606;BME280;43430;48.204;11.556;2022-10-26T04:46:05;96223.03;;;10.54;100.00
57606;BME280;43430;48.204;11.556;2022-10-26T04:48:30;96226.03;;;10.57;100.00
57606;BME280;43430;48.204;11.556;2022-10-26T04:50:58;96229.47;;;10.58;100.00
57606;BME280;43430;48.204;11.556;2022-10-26T04:53:24;96239.84;;;10.53;100.00
57606;BME280;43430;48.204;11.556;2022-10-26T04:55:55;96252.50;;;10.44;100.00
57606;BME280;43430;48.204;11.556;2022-10-26T04:58:21;96266.47;;;10.44;100.00
57606;BME280;43430;48.204;11.556;2022-10-26T05:00:46;96287.94;;;10.48;100.00
57606;BME280;43430;48.204;11.556;2022-10-26T05:03:11;96297.09;;;10.45;100.00
57606;BME280;43430;48.204;11.556;2022-10-26T05:05:37;96311.53;;;10.43;100.00
57606;BME280;43430;48.204;11.556;2022-10-26T05:08:02;96327.53;;;10.41;100.00
57606;BME280;43430;48.204;11.556;2022-10-26T05:10:28;96351.94;;;10.30;100.00
57606;BME280;43430;48.204;11.556;2022-10-26T05:12:55;96344.00;;;10.37;100.00
57606;BME280;43430;48.204;11.556;2022-10-26T05:15:21;96356.41;;;10.30;100.00
57606;BME280;43430;48.204;11.556;2022-10-26T05:17:53;96357.84;;;10.26;100.00
57606;BME280;43430;48.204;11.556;2022-10-26T05:20:19;96351.72;;;10.32;100.00
57606;BME280;43430;48.204;11.556;2022-10-26T05:22:51;96360.25;;;10.27;100.00
57606;BME280;43430;48.204;11.556;2022-10-26T05:25:16;96354.34;;;10.32;100.00
57606;BME280;43430;48.204;11.556;2022-10-26T05:27:42;96347.66;;;10.36;100.00
57606;BME280;43430;48.204;11.556;2022-10-26T05:30:07;96360.38;;;10.39;100.00
57606;BME280;43430;48.204;11.556;2022-10-26T05:32:33;96357.97;;;10.37;100.00
57606;BME280;43430;48.204;11.556;2022-10-26T05:34:58;96365.66;;;10.39;100.00
57606;BME280;43430;48.204;11.556;2022-10-26T05:37:27;96381.91;;;10.36;100.00
57606;BME280;43430;48.204;11.556;2022-10-26T05:39:52;96385.97;;;10.32;100.00
57606;BME280;43430;48.204;11.556;2022-10-26T05:42:18;96381.50;;;10.32;100.00
57606;BME280;43430;48.204;11.556;2022-10-26T05:44:44;96387.22;;;10.29;100.00
57606;BME280;43430;48.204;11.556;2022-10-26T05:47:10;96386.59;;;10.20;100.00
57606;BME280;43430;48.204;11.556;2022-10-26T05:49:35;96393.06;;;10.25;100.00
57606;BME280;43430;48.204;11.556;2022-10-26T05:52:00;96395.72;;;10.31;100.00
57606;BME280;43430;48.204;11.556;2022-10-26T05:54:26;96407.88;;;10.32;100.00
57606;BME280;43430;48.204;11.556;2022-10-26T05:56:51;96401.19;;;10.36;100.00
57606;BME280;43430;48.204;11.556;2022-10-26T05:59:17;96402.78;;;10.37;100.00
57606;BME280;43430;48.204;11.556;2022-10-26T06:06:52;96424.94;;;10.30;100.00
57606;BME280;43430;48.204;11.556;2022-10-26T06:09:19;96410.69;;;10.37;100.00
57606;BME280;43430;48.204;11.556;2022-10-26T06:11:45;96413.09;;;10.39;100.00
57606;BME280;43430;48.204;11.556;2022-10-26T06:14:11;96401.34;;;10.41;100.00
57606;BME280;43430;48.204;11.556;2022-10-26T06:27:35;96419.63;;;10.36;100.00
57606;BME280;43430;48.204;11.556;2022-10-26T06:30:05;96416.31;;;10.48;100.00
57606;BME280;43430;48.204;11.556;2022-10-26T06:32:34;96408.41;;;10.48;100.00
57606;BME280;43430;48.204;11.556;2022-10-26T06:35:20;96401.69;;;10.52;100.00
57606;BME280;43430;48.204;11.556;2022-10-26T06:37:48;96394.03;;;10.50;100.00
57606;BME280;43430;48.204;11.556;2022-10-26T06:40:16;96409.16;;;10.61;100.00
57606;BME280;43430;48.204;11.556;2022-10-26T06:42:42;96412.63;;;10.55;100.00
57606;BME280;43430;48.204;11.556;2022-10-26T06:45:14;96408.16;;;10.56;100.00
57606;BME280;43430;48.204;11.556;2022-10-26T06:47:51;96411.00;;;10.61;100.00
57606;BME280;43430;48.204;11.556;2022-10-26T06:50:38;96419.84;;;10.73;100.00
57606;BME280;43430;48.204;11.556;2022-10-26T06:55:49;96414.50;;;10.86;100.00
57606;BME280;43430;48.204;11.556;2022-10-26T06:58:17;96414.06;;;10.89;100.00
57606;BME280;43430;48.204;11.556;2022-10-26T07:00:43;96405.09;;;10.97;100.00
57606;BME280;43430;48.204;11.556;2022-10-26T07:03:10;96406.84;;;11.10;100.00
57606;BME280;43430;48.204;11.556;2022-10-26T07:05:35;96404.16;;;11.16;100.00
57606;BME280;43430;48.204;11.556;2022-10-26T07:08:00;96398.00;;;11.23;100.00
57606;BME280;43430;48.204;11.556;2022-10-26T07:10:26;96402.06;;;11.25;100.00
57606;BME280;43430;48.204;11.556;2022-10-26T07:12:51;96403.41;;;11.34;100.00
57606;BME280;43430;48.204;11.556;2022-10-26T07:15:16;96408.03;;;11.39;100.00
57606;BME280;43430;48.204;11.556;2022-10-26T07:17:46;96401.31;;;11.43;100.00
57606;BME280;43430;48.204;11.556;2022-10-26T07:20:13;96396.97;;;11.49;100.00
57606;BME280;43430;48.204;11.556;2022-10-26T07:22:38;96396.78;;;11.50;100.00
57606;BME280;43430;48.204;11.556;2022-10-26T07:25:04;96405.22;;;11.59;100.00
57606;BME280;43430;48.204;11.556;2022-10-26T07:27:31;96390.53;;;11.63;100.00
57606;BME280;43430;48.204;11.556;2022-10-26T07:29:56;96397.59;;;11.69;100.00
57606;BME280;43430;48.204;11.556;2022-10-26T07:32:21;96409.34;;;11.73;100.00
57606;BME280;43430;48.204;11.556;2022-10-26T07:34:47;96395.88;;;11.81;100.00
57606;BME280;43430;48.204;11.556;2022-10-26T07:37:12;96398.47;;;11.88;100.00
57606;BME280;43430;48.204;11.556;2022-10-26T07:39:37;96403.69;;;11.95;100.00
57606;BME280;43430;48.204;11.556;2022-10-26T07:42:03;96397.91;;;12.04;100.00
57606;BME280;43430;48.204;11.556;2022-10-26T07:44:28;96402.88;;;12.13;100.00
57606;BME280;43430;48.204;11.556;2022-10-26T07:46:53;96403.84;;;12.18;100.00
57606;BME280;43430;48.204;11.556;2022-10-26T07:49:19;96391.00;;;12.22;100.00
57606;BME280;43430;48.204;11.556;2022-10-26T07:51:44;96374.94;;;12.35;100.00
57606;BME280;43430;48.204;11.556;2022-10-26T07:54:09;96356.00;;;12.38;100.00
57606;BME280;43430;48.204;11.556;2022-10-26T07:56:35;96355.53;;;12.41;100.00
57606;BME280;43430;48.204;11.556;2022-10-26T07:59:00;96341.78;;;12.51;100.00
57606;BME280;43430;48.204;11.556;2022-10-26T08:01:25;96344.78;;;12.54;100.00
57606;BME280;43430;48.204;11.556;2022-10-26T08:03:52;96334.91;;;12.62;100.00
57606;BME280;43430;48.204;11.556;2022-10-26T08:06:20;96331.75;;;12.71;100.00
57606;BME280;43430;48.204;11.556;2022-10-26T08:08:46;96346.38;;;12.74;100.00
57606;BME280;43430;48.204;11.556;2022-10-26T08:11:12;96359.50;;;12.80;100.00
57606;BME280;43430;48.204;11.556;2022-10-26T08:13:37;96355.91;;;12.87;100.00
57606;BME280;43430;48.204;11.556;2022-10-26T08:16:04;96350.88;;;12.97;100.00
57606;BME280;43430;48.204;11.556;2022-10-26T08:18:29;96333.19;;;13.09;100.00
57606;BME280;43430;48.204;11.556;2022-10-26T08:21:03;96316.66;;;13.25;100.00
57606;BME280;43430;48.204;11.556;2022-10-26T08:23:29;96317.25;;;13.39;100.00
57606;BME280;43430;48.204;11.556;2022-10-26T08:26:02;96319.06;;;13.50;100.00
57606;BME280;43430;48.204;11.556;2022-10-26T08:28:28;96318.03;;;13.63;100.00
57606;BME280;43430;48.204;11.556;2022-10-26T08:30:54;96310.41;;;13.78;100.00
57606;BME280;43430;48.204;11.556;2022-10-26T08:33:20;96308.88;;;13.94;100.00
57606;BME280;43430;48.204;11.556;2022-10-26T08:35:45;96322.34;;;14.05;100.00
57606;BME280;43430;48.204;11.556;2022-10-26T08:38:11;96304.31;;;14.18;100.00
57606;BME280;43430;48.204;11.556;2022-10-26T08:40:39;96313.28;;;14.17;100.00
57606;BME280;43430;48.204;11.556;2022-10-26T08:43:25;96316.59;;;14.24;100.00
57606;BME280;43430;48.204;11.556;2022-10-26T08:46:12;96323.63;;;14.31;100.00
57606;BME280;43430;48.204;11.556;2022-10-26T08:48:44;96310.13;;;14.32;100.00
57606;BME280;43430;48.204;11.556;2022-10-26T08:51:15;96318.97;;;14.38;100.00
57606;BME280;43430;48.204;11.556;2022-10-26T08:56:23;96319.31;;;14.53;100.00
57606;BME280;43430;48.204;11.556;2022-10-26T08:58:59;96316.66;;;14.53;100.00
57606;BME280;43430;48.204;11.556;2022-10-26T09:01:29;96328.47;;;14.62;100.00
57606;BME280;43430;48.204;11.556;2022-10-26T09:04:01;96321.84;;;14.77;100.00
57606;BME280;43430;48.204;11.556;2022-10-26T09:11:31;96319.19;;;15.27;100.00
57606;BME280;43430;48.204;11.556;2022-10-26T09:22:47;96284.41;;;15.84;100.00
57606;BME280;43430;48.204;11.556;2022-10-26T09:25:19;96291.53;;;16.01;100.00
57606;BME280;43430;48.204;11.556;2022-10-26T09:28:10;96283.47;;;16.18;100.00
57606;BME280;43430;48.204;11.556;2022-10-26T09:30:33;96287.34;;;16.32;100.00
57606;BME280;43430;48.204;11.556;2022-10-26T09:33:19;96281.25;;;16.36;100.00
57606;BME280;43430;48.204;11.556;2022-10-26T09:36:04;96295.03;;;16.55;100.00
57606;BME280;43430;48.204;11.556;2022-10-26T09:38:50;96288.88;;;16.77;100.00
57606;BME280;43430;48.204;11.556;2022-10-26T09:41:30;96293.19;;;16.83;100.00
57606;BME280;43430;48.204;11.556;2022-10-26T09:49:25;96296.34;;;17.12;100.00
57606;BME280;43430;48.204;11.556;2022-10-26T09:51:55;96297.78;;;17.25;100.00
57606;BME280;43430;48.204;11.556;2022-10-26T09:54:20;96300.28;;;17.42;100.00
57606;BME280;43430;48.204;11.556;2022-10-26T09:56:54;96307.19;;;17.38;100.00
57606;BME280;43430;48.204;11.556;2022-10-26T09:59:23;96309.72;;;17.60;100.00
57606;BME280;43430;48.204;11.556;2022-10-26T10:01:49;96305.63;;;17.79;100.00
57606;BME280;43430;48.204;11.556;2022-10-26T10:06:44;96314.69;;;17.83;100.00
57606;BME280;43430;48.204;11.556;2022-10-26T10:09:20;96312.03;;;17.83;100.00
57606;BME280;43430;48.204;11.556;2022-10-26T10:11:56;96304.19;;;17.71;100.00
57606;BME280;43430;48.204;11.556;2022-10-26T10:14:25;96309.88;;;17.85;100.00
57606;BME280;43430;48.204;11.556;2022-10-26T10:16:56;96297.94;;;17.93;100.00
57606;BME280;43430;48.204;11.556;2022-10-26T10:19:33;96305.66;;;17.94;100.00
57606;BME280;43430;48.204;11.556;2022-10-26T10:22:01;96304.59;;;17.90;100.00
57606;BME280;43430;48.204;11.556;2022-10-26T10:24:35;96310.69;;;17.81;100.00
57606;BME280;43430;48.204;11.556;2022-10-26T10:29:46;96312.53;;;17.80;100.00
57606;BME280;43430;48.204;11.556;2022-10-26T10:32:17;96307.75;;;17.82;100.00
57606;BME280;43430;48.204;11.556;2022-10-26T10:34:45;96321.97;;;17.98;100.00
57606;BME280;43430;48.204;11.556;2022-10-26T10:37:25;96316.06;;;17.96;100.00
57606;BME280;43430;48.204;11.556;2022-10-26T10:39:57;96322.19;;;17.91;100.00
57606;BME280;43430;48.204;11.556;2022-10-26T10:42:27;96329.97;;;17.93;100.00
57606;BME280;43430;48.204;11.556;2022-10-26T10:44:55;96312.59;;;17.95;100.00
57606;BME280;43430;48.204;11.556;2022-10-26T10:47:26;96318.50;;;18.02;100.00
57606;BME280;43430;48.204;11.556;2022-10-26T10:52:36;96325.47;;;18.03;100.00
57606;BME280;43430;48.204;11.556;2022-10-26T10:55:06;96324.94;;;18.07;100.00
57606;BME280;43430;48.204;11.556;2022-10-26T11:00:35;96327.06;;;18.05;100.00
57606;BME280;43430;48.204;11.556;2022-10-26T11:03:32;96328.47;;;18.17;100.00
57606;BME280;43430;48.204;11.556;2022-10-26T11:06:12;96322.84;;;18.19;100.00
57606;BME280;43430;48.204;11.556;2022-10-26T11:11:27;96323.13;;;18.17;100.00
57606;BME280;43430;48.204;11.556;2022-10-26T11:14:04;96329.78;;;18.20;100.00
57606;BME280;43430;48.204;11.556;2022-10-26T11:16:51;96326.63;;;18.28;100.00
57606;BME280;43430;48.204;11.556;2022-10-26T11:19:28;96333.00;;;18.27;100.00
57606;BME280;43430;48.204;11.556;2022-10-26T11:21:56;96325.84;;;18.27;100.00
57606;BME280;43430;48.204;11.556;2022-10-26T11:24:26;96334.63;;;18.28;100.00
57606;BME280;43430;48.204;11.556;2022-10-26T11:27:03;96330.09;;;18.34;100.00
57606;BME280;43430;48.204;11.556;2022-10-26T11:29:44;96326.91;;;18.37;100.00
57606;BME280;43430;48.204;11.556;2022-10-26T11:32:19;96323.41;;;18.26;100.00
57606;BME280;43430;48.204;11.556;2022-10-26T11:34:52;96331.44;;;18.31;100.00
57606;BME280;43430;48.204;11.556;2022-10-26T11:37:43;96329.53;;;18.21;100.00
57606;BME280;43430;48.204;11.556;2022-10-26T11:43:22;96346.16;;;18.39;100.00
57606;BME280;43430;48.204;11.556;2022-10-26T11:46:04;96353.09;;;18.35;100.00
57606;BME280;43430;48.204;11.556;2022-10-26T11:48:42;96350.69;;;18.38;100.00
57606;BME280;43430;48.204;11.556;2022-10-26T11:51:16;96349.34;;;18.36;100.00
57606;BME280;43430;48.204;11.556;2022-10-26T11:53:45;96359.75;;;18.32;100.00
57606;BME280;43430;48.204;11.556;2022-10-26T11:56:36;96361.25;;;18.08;100.00
57606;BME280;43430;48.204;11.556;2022-10-26T11:59:03;96354.50;;;17.95;100.00
57606;BME280;43430;48.204;11.556;2022-10-26T12:01:30;96364.63;;;17.93;100.00
57606;BME280;43430;48.204;11.556;2022-10-26T12:03:59;96369.19;;;18.02;100.00
57606;BME280;43430;48.204;11.556;2022-10-26T12:06:29;96372.44;;;18.05;100.00
57606;BME280;43430;48.204;11.556;2022-10-26T12:09:04;96375.88;;;18.00;100.00
57606;BME280;43430;48.204;11.556;2022-10-26T12:14:05;96373.44;;;17.93;100.00
57606;BME280;43430;48.204;11.556;2022-10-26T12:19:05;96383.00;;;17.89;100.00
57606;BME280;43430;48.204;11.556;2022-10-26T12:21:34;96385.91;;;17.83;100.00
57606;BME280;43430;48.204;11.556;2022-10-26T12:24:01;96387.25;;;17.85;100.00
57606;BME280;43430;48.204;11.556;2022-10-26T12:34:09;96398.31;;;18.04;100.00
57606;BME280;43430;48.204;11.556;2022-10-26T12:44:37;96402.22;;;17.86;100.00
57606;BME280;43430;48.204;11.556;2022-10-26T12:47:04;96395.81;;;17.92;100.00
57606;BME280;43430;48.204;11.556;2022-10-26T12:52:28;96406.59;;;18.08;100.00
57606;BME280;43430;48.204;11.556;2022-10-26T12:55:24;96410.59;;;18.05;100.00
57606;BME280;43430;48.204;11.556;2022-10-26T13:00:54;96403.03;;;17.92;100.00
57606;BME280;43430;48.204;11.556;2022-10-26T13:08:47;96412.63;;;17.88;100.00
57606;BME280;43430;48.204;11.556;2022-10-26T13:11:31;96412.94;;;17.96;100.00
57606;BME280;43430;48.204;11.556;2022-10-26T13:14:03;96418.28;;;17.96;100.00
57606;BME280;43430;48.204;11.556;2022-10-26T13:16:29;96419.38;;;18.00;100.00
57606;BME280;43430;48.204;11.556;2022-10-26T13:18:55;96415.69;;;18.07;100.00
57606;BME280;43430;48.204;11.556;2022-10-26T13:21:23;96411.94;;;18.08;100.00
57606;BME280;43430;48.204;11.556;2022-10-26T13:26:18;96415.97;;;18.15;100.00
57606;BME280;43430;48.204;11.556;2022-10-26T13:28:57;96421.03;;;18.12;100.00
57606;BME280;43430;48.204;11.556;2022-10-26T13:36:39;96420.47;;;18.05;100.00
57606;BME280;43430;48.204;11.556;2022-10-26T13:39:16;96419.09;;;18.02;100.00
57606;BME280;43430;48.204;11.556;2022-10-26T13:41:44;96419.31;;;17.95;100.00
57606;BME280;43430;48.204;11.556;2022-10-26T13:44:22;96421.69;;;17.87;100.00
57606;BME280;43430;48.204;11.556;2022-10-26T13:46:54;96421.19;;;17.90;100.00
57606;BME280;43430;48.204;11.556;2022-10-26T13:49:29;96425.16;;;17.87;100.00
57606;BME280;43430;48.204;11.556;2022-10-26T13:52:01;96423.03;;;17.89;100.00
57606;BME280;43430;48.204;11.556;2022-10-26T13:54:41;96436.13;;;17.96;100.00
57606;BME280;43430;48.204;11.556;2022-10-26T13:57:13;96431.09;;;17.99;100.00
57606;BME280;43430;48.204;11.556;2022-10-26T13:59:43;96440.72;;;18.00;100.00
57606;BME280;43430;48.204;11.556;2022-10-26T14:02:23;96437.03;;;18.07;100.00
57606;BME280;43430;48.204;11.556;2022-10-26T14:04:58;96438.63;;;18.08;100.00
57606;BME280;43430;48.204;11.556;2022-10-26T14:07:27;96438.84;;;18.01;100.00
57606;BME280;43430;48.204;11.556;2022-10-26T14:09:57;96430.56;;;17.97;100.00
57606;BME280;43430;48.204;11.556;2022-10-26T14:12:24;96434.53;;;17.95;100.00
57606;BME280;43430;48.204;11.556;2022-10-26T14:14:50;96432.97;;;17.99;100.00
57606;BME280;43430;48.204;11.556;2022-10-26T14:17:21;96445.84;;;18.07;100.00
57606;BME280;43430;48.204;11.556;2022-10-26T14:19:49;96446.19;;;18.21;100.00
57606;BME280;43430;48.204;11.556;2022-10-26T14:22:21;96439.78;;;18.22;100.00
57606;BME280;43430;48.204;11.556;2022-10-26T14:24:52;96438.66;;;18.13;100.00
57606;BME280;43430;48.204;11.556;2022-10-26T14:27:24;96435.47;;;18.16;100.00
57606;BME280;43430;48.204;11.556;2022-10-26T14:29:51;96442.66;;;18.10;100.00
57606;BME280;43430;48.204;11.556;2022-10-26T14:32:21;96440.16;;;17.98;100.00
57606;BME280;43430;48.204;11.556;2022-10-26T14:34:46;96442.06;;;18.03;100.00
57606;BME280;43430;48.204;11.556;2022-10-26T14:39:48;96445.78;;;18.02;100.00
57606;BME280;43430;48.204;11.556;2022-10-26T14:44:48;96455.56;;;17.86;100.00
57606;BME280;43430;48.204;11.556;2022-10-26T14:47:34;96460.06;;;17.86;100.00
57606;BME280;43430;48.204;11.556;2022-10-26T14:50:00;96453.91;;;17.80;100.00